createdAt,value
2022-10-21T00:00:57.770Z,12.07
2022-10-21T00:01:59.948Z,12.09
2022-10-21T00:02:58.315Z,12.12
2022-10-21T00:03:58.617Z,12.09
2022-10-21T00:04:59.866Z,12.13
2022-10-21T00:06:00.102Z,12.17
2022-10-21T00:07:01.443Z,12.12
2022-10-21T00:07:59.692Z,12.09
2022-10-21T00:09:00.031Z,12.13
2022-10-21T00:10:00.328Z,12.02
2022-10-21T00:11:00.611Z,12.04
2022-10-21T00:12:02.826Z,12.02
2022-10-21T00:13:01.198Z,12.02
2022-10-21T00:14:01.472Z,12.00
2022-10-21T00:15:02.792Z,12.04
2022-10-21T00:16:02.018Z,11.97
2022-10-21T00:17:04.229Z,11.91
2022-10-21T00:18:02.607Z,11.99
2022-10-21T00:19:03.282Z,11.90
2022-10-21T00:20:04.237Z,11.95
2022-10-21T00:21:05.475Z,11.99
2022-10-21T00:22:05.674Z,11.99
2022-10-21T00:23:04.185Z,11.95
2022-10-21T00:24:04.815Z,12.03
2022-10-21T00:25:05.751Z,11.99
2022-10-21T00:26:06.068Z,11.95
2022-10-21T00:27:07.294Z,11.95
2022-10-21T00:28:05.666Z,11.91
2022-10-21T00:29:05.960Z,11.95
2022-10-21T00:30:07.275Z,11.99
2022-10-21T00:31:08.459Z,11.95
2022-10-21T00:32:08.658Z,11.94
2022-10-21T00:33:07.159Z,11.94
2022-10-21T00:34:07.457Z,11.97
2022-10-21T00:35:08.739Z,12.02
2022-10-21T00:36:09.982Z,12.00
2022-10-21T00:37:08.903Z,11.94
2022-10-21T00:38:09.625Z,11.87
2022-10-21T00:39:09.742Z,11.95
2022-10-21T00:40:10.150Z,11.97
2022-10-21T00:41:10.350Z,12.02
2022-10-21T00:42:11.783Z,11.90
2022-10-21T00:43:10.885Z,11.90
2022-10-21T00:44:11.301Z,11.84
2022-10-21T00:45:11.703Z,11.88
2022-10-21T00:46:11.861Z,11.86
2022-10-21T00:47:13.109Z,11.87
2022-10-21T00:48:11.503Z,11.80
2022-10-21T00:49:11.791Z,11.78
2022-10-21T00:50:13.029Z,11.83
2022-10-21T00:51:12.394Z,11.73
2022-10-21T00:52:14.575Z,11.77
2022-10-21T00:53:16.227Z,11.73
2022-10-21T00:54:13.277Z,11.75
2022-10-21T00:55:14.555Z,11.70
2022-10-21T00:56:15.505Z,11.70
2022-10-21T00:57:17.062Z,11.73
2022-10-21T00:58:16.283Z,11.73
2022-10-21T00:59:15.748Z,11.72
2022-10-21T01:00:15.374Z,11.73
2022-10-21T01:01:19.118Z,11.72
2022-10-21T01:02:16.844Z,11.68
2022-10-21T01:03:18.023Z,11.69
2022-10-21T01:04:16.400Z,11.70
2022-10-21T01:05:18.175Z,11.75
2022-10-21T01:06:17.895Z,11.80
2022-10-21T01:07:17.384Z,11.83
2022-10-21T01:08:19.576Z,11.84
2022-10-21T01:09:19.753Z,11.78
2022-10-21T01:10:20.931Z,11.72
2022-10-21T01:11:20.164Z,11.70
2022-10-21T01:12:19.921Z,11.68
2022-10-21T01:13:19.177Z,11.66
2022-10-21T01:14:21.344Z,11.66
2022-10-21T01:15:20.615Z,11.68
2022-10-21T01:16:19.975Z,11.65
2022-10-21T01:17:26.485Z,11.70
2022-10-21T01:18:21.606Z,11.70
2022-10-21T01:19:22.796Z,11.72
2022-10-21T01:20:22.206Z,11.81
2022-10-21T01:21:23.397Z,11.90
2022-10-21T01:22:21.648Z,11.90
2022-10-21T01:23:21.947Z,12.02
2022-10-21T01:24:22.334Z,11.99
2022-10-21T01:25:23.499Z,11.90
2022-10-21T01:26:24.711Z,11.95
2022-10-21T01:27:23.079Z,11.90
2022-10-21T01:28:23.371Z,11.83
2022-10-21T01:29:25.561Z,11.81
2022-10-21T01:30:24.922Z,11.81
2022-10-21T01:31:25.234Z,11.88
2022-10-21T01:32:25.567Z,11.95
2022-10-21T01:33:24.812Z,11.88
2022-10-21T01:34:26.987Z,11.86
2022-10-21T01:35:28.183Z,11.77
2022-10-21T01:36:25.688Z,11.73
2022-10-21T01:37:25.991Z,11.75
2022-10-21T01:38:26.279Z,11.80
2022-10-21T01:39:28.469Z,11.84
2022-10-21T01:41:42.460Z,11.94
2022-10-21T01:42:43.780Z,11.99
2022-10-21T01:43:43.011Z,11.97
2022-10-21T01:44:45.200Z,11.97
2022-10-21T01:45:46.861Z,11.95
2022-10-21T01:46:43.923Z,11.90
2022-10-21T01:47:44.220Z,11.95
2022-10-21T01:48:44.665Z,11.94
2022-10-21T01:49:46.733Z,11.80
2022-10-21T01:50:47.862Z,11.84
2022-10-21T01:51:46.319Z,11.86
2022-10-21T01:52:45.676Z,11.81
2022-10-21T01:53:47.856Z,11.87
2022-10-21T01:54:46.238Z,11.84
2022-10-21T01:55:47.524Z,11.81
2022-10-21T01:56:46.886Z,11.77
2022-10-21T01:57:47.172Z,11.72
2022-10-21T01:58:49.364Z,11.66
2022-10-21T01:59:47.727Z,11.75
2022-10-21T02:00:48.119Z,11.72
2022-10-21T02:01:48.262Z,11.69
2022-10-21T02:02:48.565Z,11.63
2022-10-21T02:03:48.886Z,11.66
2022-10-21T02:04:51.073Z,11.65
2022-10-21T02:05:49.445Z,11.69
2022-10-21T02:06:49.748Z,11.66
2022-10-21T02:07:50.041Z,11.72
2022-10-21T02:08:50.376Z,11.65
2022-10-21T02:09:52.525Z,11.65
2022-10-21T02:10:50.894Z,11.65
2022-10-21T02:11:51.238Z,11.69
2022-10-21T02:12:53.415Z,11.73
2022-10-21T02:13:51.782Z,11.65
2022-10-21T02:14:53.977Z,11.65
2022-10-21T02:15:54.147Z,11.60
2022-10-21T02:16:52.644Z,11.63
2022-10-21T02:17:52.946Z,11.68
2022-10-21T02:18:53.268Z,11.68
2022-10-21T02:19:55.434Z,11.78
2022-10-21T02:20:54.831Z,11.69
2022-10-21T02:21:55.113Z,11.77
2022-10-21T02:22:56.307Z,11.83
2022-10-21T02:23:56.491Z,11.84
2022-10-21T02:24:55.245Z,11.73
2022-10-21T02:25:55.385Z,11.66
2022-10-21T02:26:55.697Z,11.68
2022-10-21T02:27:55.965Z,11.69
2022-10-21T02:28:58.154Z,11.73
2022-10-21T02:29:56.737Z,11.69
2022-10-21T02:30:56.850Z,11.72
2022-10-21T02:31:57.136Z,11.69
2022-10-21T02:32:57.428Z,11.77
2022-10-21T02:34:01.060Z,11.72
2022-10-21T02:34:57.961Z,11.86
2022-10-21T02:36:01.560Z,11.84
2022-10-21T02:36:58.575Z,11.87
2022-10-21T02:37:58.867Z,11.78
2022-10-21T02:39:01.056Z,11.72
2022-10-21T02:40:01.308Z,11.91
2022-10-21T02:41:01.398Z,11.80
2022-10-21T02:42:00.009Z,11.84
2022-10-21T02:43:00.302Z,11.86
2022-10-21T02:44:02.494Z,11.87
2022-10-21T02:45:00.866Z,11.88
2022-10-21T02:46:03.039Z,11.90
2022-10-21T02:47:01.447Z,11.88
2022-10-21T02:48:01.706Z,11.81
2022-10-21T02:49:03.898Z,11.83
2022-10-21T02:50:02.276Z,11.83
2022-10-21T02:51:02.580Z,11.87
2022-10-21T02:52:02.858Z,11.83
2022-10-21T02:53:05.049Z,11.87
2022-10-21T02:54:05.220Z,11.91
2022-10-21T02:55:03.813Z,11.91
2022-10-21T02:56:04.774Z,11.90
2022-10-21T02:57:06.099Z,11.94
2022-10-21T02:58:04.589Z,11.88
2022-10-21T02:59:06.798Z,11.88
2022-10-21T03:00:06.993Z,12.03
2022-10-21T03:01:06.421Z,12.09
2022-10-21T03:02:07.687Z,12.12
2022-10-21T03:03:06.918Z,12.06
2022-10-21T03:04:06.393Z,11.95
2022-10-21T03:05:07.683Z,11.97
2022-10-21T03:06:08.869Z,11.90
2022-10-21T03:07:07.235Z,11.87
2022-10-21T03:08:09.419Z,11.97
2022-10-21T03:09:08.649Z,11.95
2022-10-21T03:10:08.252Z,11.90
2022-10-21T03:11:10.322Z,11.94
2022-10-21T03:12:09.637Z,11.87
2022-10-21T03:13:08.992Z,11.91
2022-10-21T03:14:09.311Z,11.88
2022-10-21T03:15:09.612Z,11.90
2022-10-21T03:16:11.834Z,11.90
2022-10-21T03:17:10.168Z,11.95
2022-10-21T03:18:10.478Z,11.95
2022-10-21T03:19:10.765Z,11.83
2022-10-21T03:20:11.080Z,11.91
2022-10-21T03:21:13.253Z,12.07
2022-10-21T03:22:11.615Z,12.06
2022-10-21T03:23:11.927Z,11.95
2022-10-21T03:24:19.793Z,11.95
2022-10-21T03:25:15.402Z,11.99
2022-10-21T03:26:14.583Z,12.00
2022-10-21T03:27:13.097Z,12.07
2022-10-21T03:28:13.366Z,12.07
2022-10-21T03:29:13.651Z,12.21
2022-10-21T03:30:14.826Z,12.17
2022-10-21T03:31:16.184Z,12.17
2022-10-21T03:32:14.424Z,12.25
2022-10-21T03:33:14.719Z,12.36
2022-10-21T03:34:15.010Z,12.15
2022-10-21T03:35:15.304Z,11.97
2022-10-21T03:36:17.491Z,12.00
2022-10-21T03:37:15.873Z,11.97
2022-10-21T03:38:16.167Z,11.86
2022-10-21T03:39:16.462Z,11.86
2022-10-21T03:40:16.757Z,11.86
2022-10-21T03:41:18.945Z,11.97
2022-10-21T03:42:17.325Z,11.86
2022-10-21T03:43:17.620Z,11.84
2022-10-21T03:44:17.898Z,11.84
2022-10-21T03:45:18.184Z,11.70
2022-10-21T03:46:20.388Z,11.70
2022-10-21T03:47:18.758Z,11.78
2022-10-21T03:48:20.914Z,11.77
2022-10-21T03:49:21.292Z,11.83
2022-10-21T03:50:23.571Z,11.83
2022-10-21T03:51:22.731Z,11.78
2022-10-21T03:52:20.114Z,11.80
2022-10-21T03:53:38.310Z,11.83
2022-10-21T03:54:21.709Z,11.81
2022-10-21T03:55:22.236Z,11.84
2022-10-21T03:56:21.217Z,11.78
2022-10-21T03:57:21.507Z,11.86
2022-10-21T03:58:21.795Z,11.94
2022-10-21T03:59:22.086Z,11.88
2022-10-21T04:00:23.212Z,11.84
2022-10-21T04:01:22.685Z,12.07
2022-10-21T04:02:22.965Z,11.97
2022-10-21T04:03:23.239Z,11.90
2022-10-21T04:04:23.935Z,11.91
2022-10-21T04:05:23.775Z,11.87
2022-10-21T04:06:24.058Z,11.87
2022-10-21T04:07:26.241Z,11.86
2022-10-21T04:08:24.610Z,11.90
2022-10-21T04:09:24.887Z,11.91
2022-10-21T04:10:27.077Z,11.90
2022-10-21T04:11:25.450Z,11.84
2022-10-21T04:12:27.635Z,11.84
2022-10-21T04:13:25.995Z,11.81
2022-10-21T04:14:26.281Z,11.81
2022-10-21T04:15:26.561Z,11.83
2022-10-21T04:16:26.854Z,11.88
2022-10-21T04:17:29.056Z,11.86
2022-10-21T04:18:27.419Z,11.77
2022-10-21T04:19:29.595Z,11.83
2022-10-21T04:20:27.963Z,11.77
2022-10-21T04:21:28.251Z,11.78
2022-10-21T04:22:28.575Z,11.80
2022-10-21T04:23:28.830Z,11.84
2022-10-21T04:24:31.030Z,11.69
2022-10-21T04:25:29.408Z,11.77
2022-10-21T04:26:29.777Z,11.77
2022-10-21T04:27:31.968Z,11.73
2022-10-21T04:28:30.400Z,11.81
2022-10-21T04:29:33.943Z,11.81
2022-10-21T04:30:30.958Z,11.83
2022-10-21T04:31:32.313Z,11.86
2022-10-21T04:32:31.480Z,11.83
2022-10-21T04:33:33.680Z,11.86
2022-10-21T04:34:32.046Z,11.75
2022-10-21T04:35:32.347Z,11.81
2022-10-21T04:36:34.522Z,11.84
2022-10-21T04:37:32.898Z,11.81
2022-10-21T04:38:33.197Z,11.80
2022-10-21T04:39:35.354Z,11.73
2022-10-21T04:40:33.727Z,11.77
2022-10-21T04:41:35.920Z,11.69
2022-10-21T04:42:34.306Z,11.78
2022-10-21T04:43:34.588Z,11.83
2022-10-21T04:44:34.885Z,11.83
2022-10-21T04:45:35.177Z,11.81
2022-10-21T04:46:35.474Z,11.80
2022-10-21T04:47:38.899Z,11.78
2022-10-21T04:48:37.835Z,11.77
2022-10-21T04:49:36.319Z,11.80
2022-10-21T04:50:38.493Z,11.78
2022-10-21T04:51:36.858Z,11.84
2022-10-21T04:52:37.557Z,11.90
2022-10-21T04:53:40.797Z,11.88
2022-10-21T04:54:40.477Z,11.95
2022-10-21T04:55:37.981Z,11.87
2022-10-21T04:56:40.171Z,11.87
2022-10-21T04:57:38.551Z,11.90
2022-10-21T04:58:38.846Z,11.88
2022-10-21T04:59:41.015Z,11.90
2022-10-21T05:00:39.420Z,11.83
2022-10-21T05:01:39.675Z,11.83
2022-10-21T05:02:40.203Z,11.94
2022-10-21T05:03:40.204Z,11.94
2022-10-21T05:04:42.398Z,11.86
2022-10-21T05:05:40.766Z,11.78
2022-10-21T05:06:41.066Z,11.66
2022-10-21T05:07:41.357Z,11.69
2022-10-21T05:08:41.809Z,11.77
2022-10-21T05:09:43.858Z,11.86
2022-10-21T05:10:42.397Z,11.80
2022-10-21T05:11:42.522Z,11.77
2022-10-21T05:12:42.824Z,11.81
2022-10-21T05:13:44.998Z,11.80
2022-10-21T05:14:45.183Z,11.94
2022-10-21T05:15:45.432Z,12.00
2022-10-21T05:16:43.928Z,12.07
2022-10-21T05:17:44.212Z,12.15
2022-10-21T05:18:47.893Z,12.03
2022-10-21T05:19:44.792Z,12.09
2022-10-21T05:20:45.087Z,12.00
2022-10-21T05:21:45.376Z,11.87
2022-10-21T05:22:45.668Z,11.84
2022-10-21T05:23:47.869Z,11.78
2022-10-21T05:24:46.238Z,11.80
2022-10-21T05:25:46.531Z,11.75
2022-10-21T05:26:46.840Z,11.80
2022-10-21T05:27:47.120Z,11.81
2022-10-21T05:28:49.307Z,11.84
2022-10-21T05:29:47.672Z,11.83
2022-10-21T05:30:48.856Z,11.88
2022-10-21T05:31:50.059Z,11.88
2022-10-21T05:32:48.429Z,11.75
2022-10-21T05:33:48.730Z,11.80
2022-10-21T05:34:49.031Z,11.77
2022-10-21T05:35:51.219Z,11.83
2022-10-21T05:36:49.610Z,11.81
2022-10-21T05:37:51.801Z,11.72
2022-10-21T05:38:50.223Z,11.72
2022-10-21T05:39:52.412Z,11.75
2022-10-21T05:40:50.789Z,11.75
2022-10-21T05:41:52.969Z,11.73
2022-10-21T05:42:51.353Z,11.65
2022-10-21T05:43:51.665Z,11.65
2022-10-21T05:44:51.979Z,11.70
2022-10-21T05:45:52.283Z,11.73
2022-10-21T05:46:54.470Z,11.69
2022-10-21T05:47:52.855Z,11.60
2022-10-21T05:48:53.172Z,11.65
2022-10-21T05:49:53.475Z,11.60
2022-10-21T05:50:53.781Z,11.65
2022-10-21T05:51:54.093Z,11.55
2022-10-21T05:52:58.533Z,11.65
2022-10-21T05:53:55.628Z,11.63
2022-10-21T05:54:54.879Z,11.63
2022-10-21T05:55:57.058Z,11.60
2022-10-21T05:56:55.452Z,11.52
2022-10-21T05:57:59.386Z,11.45
2022-10-21T05:58:56.049Z,11.51
2022-10-21T05:59:56.250Z,11.52
2022-10-21T06:00:56.606Z,11.48
2022-10-21T06:01:56.883Z,11.52
2022-10-21T06:02:59.072Z,11.51
2022-10-21T06:03:57.463Z,11.55
2022-10-21T06:04:57.784Z,11.57
2022-10-21T06:05:58.109Z,11.51
2022-10-21T06:08:00.610Z,11.52
2022-10-21T06:08:59.089Z,11.48
2022-10-21T06:09:59.246Z,11.48
2022-10-21T06:11:01.394Z,11.47
2022-10-21T06:11:59.793Z,11.45
2022-10-21T06:13:01.978Z,11.52
2022-10-21T06:14:00.405Z,11.57
2022-10-21T06:15:00.630Z,11.52
2022-10-21T06:16:01.729Z,11.57
2022-10-21T06:17:02.082Z,11.59
2022-10-21T06:18:03.252Z,11.66
2022-10-21T06:19:01.655Z,11.65
2022-10-21T06:20:03.832Z,11.63
2022-10-21T06:21:02.235Z,11.73
2022-10-21T06:22:05.356Z,11.77
2022-10-21T06:23:02.897Z,11.81
2022-10-21T06:24:06.537Z,11.84
2022-10-21T06:25:03.492Z,11.86
2022-10-21T06:26:05.641Z,11.91
2022-10-21T06:27:05.815Z,11.97
2022-10-21T06:28:04.333Z,12.00
2022-10-21T06:29:06.533Z,12.06
2022-10-21T06:30:04.929Z,12.02
2022-10-21T06:31:05.262Z,12.04
2022-10-21T06:32:07.437Z,12.13
2022-10-21T06:33:05.839Z,11.99
2022-10-21T06:34:08.157Z,12.02
2022-10-21T06:35:06.517Z,12.15
2022-10-21T06:36:06.855Z,12.17
2022-10-21T06:37:07.205Z,12.25
2022-10-21T06:38:10.197Z,12.21
2022-10-21T06:39:09.433Z,12.20
2022-10-21T06:40:08.102Z,12.20
2022-10-21T06:41:12.125Z,12.15
2022-10-21T06:42:11.613Z,12.15
2022-10-21T06:43:11.834Z,12.24
2022-10-21T06:44:10.294Z,12.22
2022-10-21T06:45:09.686Z,12.28
2022-10-21T06:46:10.030Z,12.28
2022-10-21T06:47:10.363Z,12.22
2022-10-21T06:48:12.747Z,12.39
2022-10-21T06:49:12.096Z,12.49
2022-10-21T06:50:12.271Z,12.40
2022-10-21T06:51:11.661Z,12.43
2022-10-21T06:52:12.973Z,12.46
2022-10-21T06:53:13.260Z,12.49
2022-10-21T06:54:13.419Z,12.61
2022-10-21T06:55:12.817Z,12.53
2022-10-21T06:56:13.151Z,12.62
2022-10-21T06:57:13.487Z,12.60
2022-10-21T06:58:16.617Z,12.62
2022-10-21T06:59:14.175Z,12.70
2022-10-21T07:00:14.571Z,12.79
2022-10-21T07:01:27.893Z,12.57
2022-10-21T07:02:16.109Z,12.47
2022-10-21T07:03:15.495Z,12.61
2022-10-21T07:04:17.635Z,12.68
2022-10-21T07:05:15.926Z,12.86
2022-10-21T07:06:18.097Z,12.94
2022-10-21T07:07:17.475Z,13.03
2022-10-21T07:08:19.788Z,12.97
2022-10-21T07:09:17.070Z,13.03
2022-10-21T07:10:17.253Z,12.86
2022-10-21T07:11:19.441Z,12.68
2022-10-21T07:12:17.852Z,12.76
2022-10-21T07:13:21.153Z,12.80
2022-10-21T07:14:21.361Z,12.97
2022-10-21T07:15:18.783Z,13.04
2022-10-21T07:16:19.125Z,13.04
2022-10-21T07:17:21.304Z,13.15
2022-10-21T07:18:20.584Z,13.22
2022-10-21T07:19:19.994Z,13.28
2022-10-21T07:20:20.325Z,13.18
2022-10-21T07:21:20.664Z,13.16
2022-10-21T07:22:21.004Z,13.19
2022-10-21T07:23:24.718Z,12.93
2022-10-21T07:24:22.811Z,12.80
2022-10-21T07:25:23.836Z,12.82
2022-10-21T07:26:24.005Z,12.83
2022-10-21T07:27:25.160Z,12.86
2022-10-21T07:28:22.920Z,12.75
2022-10-21T07:29:24.995Z,12.76
2022-10-21T07:30:23.451Z,12.73
2022-10-21T07:31:25.572Z,12.79
2022-10-21T07:32:27.225Z,12.78
2022-10-21T07:33:24.269Z,12.72
2022-10-21T07:34:24.594Z,12.70
2022-10-21T07:35:24.927Z,12.76
2022-10-21T07:36:27.115Z,12.78
2022-10-21T07:37:26.441Z,12.79
2022-10-21T07:38:27.777Z,12.78
2022-10-21T07:39:26.180Z,12.70
2022-10-21T07:40:26.531Z,12.68
2022-10-21T07:41:28.723Z,12.76
2022-10-21T07:42:28.102Z,12.86
2022-10-21T07:43:27.367Z,12.91
2022-10-21T07:44:27.692Z,12.86
2022-10-21T07:45:28.033Z,12.62
2022-10-21T07:46:30.204Z,12.61
2022-10-21T07:47:29.574Z,12.61
2022-10-21T07:48:28.836Z,12.49
2022-10-21T07:49:29.178Z,12.62
2022-10-21T07:50:29.549Z,12.73
2022-10-21T07:51:31.694Z,12.72
2022-10-21T07:52:32.657Z,12.79
2022-10-21T07:53:32.315Z,12.90
2022-10-21T07:54:31.462Z,12.86
2022-10-21T07:55:30.858Z,12.95
2022-10-21T07:56:33.094Z,12.85
2022-10-21T07:57:32.463Z,12.91
2022-10-21T07:58:31.740Z,12.87
2022-10-21T07:59:33.919Z,12.83
2022-10-21T08:00:32.321Z,12.85
2022-10-21T08:01:32.768Z,13.09
2022-10-21T08:02:33.940Z,13.13
2022-10-21T08:03:36.191Z,13.13
2022-10-21T08:04:33.481Z,13.11
2022-10-21T08:05:33.813Z,13.04
2022-10-21T08:06:34.136Z,13.08
2022-10-21T08:07:36.394Z,13.13
2022-10-21T08:08:34.869Z,13.13
2022-10-21T08:09:36.986Z,13.05
2022-10-21T08:10:35.478Z,13.01
2022-10-21T08:11:35.694Z,12.98
2022-10-21T08:12:39.101Z,13.13
2022-10-21T08:13:36.252Z,12.98
2022-10-21T08:14:38.441Z,13.05
2022-10-21T08:15:36.842Z,13.16
2022-10-21T08:16:37.220Z,13.27
2022-10-21T08:17:38.471Z,13.37
2022-10-21T08:18:37.758Z,13.52
2022-10-21T08:19:39.930Z,13.42
2022-10-21T08:20:38.333Z,13.42
2022-10-21T08:21:38.727Z,13.56
2022-10-21T08:22:41.121Z,13.74
2022-10-21T08:23:39.250Z,13.77
2022-10-21T08:24:42.424Z,13.83
2022-10-21T08:25:39.910Z,13.59
2022-10-21T08:26:40.246Z,13.47
2022-10-21T08:27:40.717Z,13.38
2022-10-21T08:28:40.887Z,13.35
2022-10-21T08:29:43.064Z,13.39
2022-10-21T08:30:41.471Z,13.38
2022-10-21T08:31:41.812Z,13.23
2022-10-21T08:32:42.152Z,13.30
2022-10-21T08:33:42.483Z,13.38
2022-10-21T08:34:42.735Z,13.42
2022-10-21T08:35:44.922Z,13.56
2022-10-21T08:36:43.324Z,13.44
2022-10-21T08:37:45.505Z,13.49
2022-10-21T08:38:45.693Z,13.50
2022-10-21T08:39:46.818Z,13.47
2022-10-21T08:40:45.479Z,13.57
2022-10-21T08:41:45.639Z,13.65
2022-10-21T08:42:46.010Z,13.60
2022-10-21T08:43:46.218Z,13.60
2022-10-21T08:44:47.566Z,13.60
2022-10-21T08:45:46.789Z,13.47
2022-10-21T08:46:48.028Z,13.46
2022-10-21T08:47:47.370Z,13.46
2022-10-21T08:48:47.721Z,13.52
2022-10-21T08:49:48.943Z,13.33
2022-10-21T08:50:47.348Z,13.37
2022-10-21T08:51:47.674Z,13.33
2022-10-21T08:52:51.322Z,13.28
2022-10-21T08:53:48.256Z,13.23
2022-10-21T08:54:49.442Z,13.22
2022-10-21T08:55:48.832Z,13.20
2022-10-21T08:56:49.183Z,13.19
2022-10-21T08:57:51.351Z,13.33
2022-10-21T08:58:49.755Z,13.30
2022-10-21T08:59:50.940Z,13.18
2022-10-21T09:00:50.328Z,13.25
2022-10-21T09:01:50.656Z,13.35
2022-10-21T09:02:51.045Z,13.37
2022-10-21T09:03:51.311Z,13.28
2022-10-21T09:04:53.448Z,13.41
2022-10-21T09:05:53.735Z,13.31
2022-10-21T09:06:52.965Z,13.42
2022-10-21T09:07:54.335Z,13.27
2022-10-21T09:08:57.202Z,13.12
2022-10-21T09:09:52.958Z,13.20
2022-10-21T09:10:53.303Z,13.31
2022-10-21T09:11:53.643Z,13.33
2022-10-21T09:12:55.801Z,13.28
2022-10-21T09:13:55.979Z,13.30
2022-10-21T09:14:54.524Z,13.18
2022-10-21T09:15:54.851Z,13.28
2022-10-21T09:16:57.168Z,13.25
2022-10-21T09:17:55.448Z,13.37
2022-10-21T09:18:57.642Z,13.37
2022-10-21T09:19:56.310Z,13.42
2022-10-21T09:20:58.526Z,13.28
2022-10-21T09:22:10.507Z,13.27
2022-10-21T09:22:57.934Z,13.18
2022-10-21T09:23:59.123Z,13.19
2022-10-21T09:24:57.527Z,13.18
2022-10-21T09:25:57.861Z,13.16
2022-10-21T09:26:59.244Z,13.23
2022-10-21T09:28:00.730Z,13.23
2022-10-21T09:29:00.602Z,13.18
2022-10-21T09:29:59.137Z,13.22
2022-10-21T09:31:00.396Z,13.30
2022-10-21T09:32:02.433Z,13.38
2022-10-21T09:33:00.231Z,13.38
2022-10-21T09:34:02.321Z,13.30
2022-10-21T09:35:00.734Z,13.27
2022-10-21T09:36:01.956Z,13.33
2022-10-21T09:37:01.364Z,13.39
2022-10-21T09:38:01.719Z,13.46
2022-10-21T09:39:03.880Z,13.31
2022-10-21T09:40:02.285Z,13.39
2022-10-21T09:41:03.666Z,13.38
2022-10-21T09:42:10.653Z,13.38
2022-10-21T09:43:04.291Z,13.38
2022-10-21T09:44:05.304Z,13.39
2022-10-21T09:45:03.745Z,13.49
2022-10-21T09:46:04.976Z,13.60
2022-10-21T09:47:06.207Z,13.65
2022-10-21T09:48:05.423Z,13.70
2022-10-21T09:49:41.509Z,13.56
2022-10-21T09:50:07.634Z,13.46
2022-10-21T09:51:06.402Z,13.54
2022-10-21T09:52:05.701Z,13.47
2022-10-21T09:53:05.946Z,13.56
2022-10-21T09:54:08.148Z,13.71
2022-10-21T09:55:06.463Z,13.75
2022-10-21T09:56:07.715Z,13.79
2022-10-21T09:57:07.876Z,13.93
2022-10-21T09:58:07.296Z,13.86
2022-10-21T09:59:09.477Z,13.83
2022-10-21T10:00:11.099Z,13.96
2022-10-21T10:01:10.054Z,14.00
2022-10-21T10:02:08.297Z,14.00
2022-10-21T10:03:10.530Z,13.93
2022-10-21T10:04:08.838Z,13.89
2022-10-21T10:05:09.071Z,13.96
2022-10-21T10:06:11.928Z,14.05
2022-10-21T10:07:09.636Z,14.22
2022-10-21T10:08:11.816Z,14.23
2022-10-21T10:09:13.460Z,14.30
2022-10-21T10:10:10.417Z,14.44
2022-10-21T10:11:11.748Z,14.60
2022-10-21T10:12:12.441Z,14.70
2022-10-21T10:13:11.242Z,14.69
2022-10-21T10:14:13.429Z,14.45
2022-10-21T10:15:11.744Z,14.79
2022-10-21T10:16:12.999Z,14.70
2022-10-21T10:17:13.252Z,14.73
2022-10-21T10:18:14.456Z,14.91
2022-10-21T10:19:12.895Z,14.94
2022-10-21T10:20:16.534Z,14.88
2022-10-21T10:21:14.362Z,15.17
2022-10-21T10:22:13.655Z,15.15
2022-10-21T10:23:13.901Z,15.35
2022-10-21T10:24:16.085Z,15.49
2022-10-21T10:25:17.720Z,15.67
2022-10-21T10:26:15.588Z,15.68
2022-10-21T10:27:15.020Z,15.29
2022-10-21T10:28:16.165Z,15.14
2022-10-21T10:29:15.604Z,15.06
2022-10-21T10:30:17.789Z,14.96
2022-10-21T10:31:18.950Z,15.21
2022-10-21T10:32:16.416Z,15.22
2022-10-21T10:33:16.642Z,15.17
2022-10-21T10:34:16.879Z,15.24
2022-10-21T10:35:17.122Z,15.07
2022-10-21T10:36:20.754Z,14.82
2022-10-21T10:37:17.808Z,14.66
2022-10-21T10:38:21.355Z,14.58
2022-10-21T10:39:18.348Z,14.78
2022-10-21T10:40:18.602Z,14.88
2022-10-21T10:41:21.649Z,15.00
2022-10-21T10:42:19.941Z,15.03
2022-10-21T10:43:20.362Z,15.17
2022-10-21T10:44:19.657Z,15.28
2022-10-21T10:45:22.812Z,15.29
2022-10-21T10:46:20.241Z,15.42
2022-10-21T10:47:22.423Z,15.36
2022-10-21T10:48:21.674Z,15.25
2022-10-21T10:49:20.987Z,15.17
2022-10-21T10:50:22.179Z,15.03
2022-10-21T10:51:22.405Z,15.02
2022-10-21T10:52:24.654Z,15.04
2022-10-21T10:53:22.067Z,15.25
2022-10-21T10:54:23.142Z,15.49
2022-10-21T10:55:22.566Z,15.35
2022-10-21T10:56:22.807Z,15.40
2022-10-21T10:57:34.138Z,15.40
2022-10-21T10:58:27.733Z,15.49
2022-10-21T10:59:25.547Z,15.19
2022-10-21T11:00:25.739Z,15.35
2022-10-21T11:01:24.363Z,15.37
2022-10-21T11:02:26.522Z,15.42
2022-10-21T11:03:26.692Z,15.44
2022-10-21T11:04:25.130Z,15.42
2022-10-21T11:05:27.318Z,15.36
2022-10-21T11:06:25.620Z,15.17
2022-10-21T11:07:25.949Z,15.21
2022-10-21T11:08:30.724Z,15.25
2022-10-21T11:09:27.749Z,15.29
2022-10-21T11:10:26.827Z,15.33
2022-10-21T11:11:27.082Z,15.39
2022-10-21T11:12:28.326Z,15.27
2022-10-21T11:13:29.543Z,15.37
2022-10-21T11:14:27.875Z,15.39
2022-10-21T11:15:30.063Z,15.37
2022-10-21T11:16:29.539Z,15.22
2022-10-21T11:17:28.827Z,15.19
2022-10-21T11:18:29.021Z,15.14
2022-10-21T11:19:29.264Z,15.17
2022-10-21T11:20:31.438Z,15.15
2022-10-21T11:21:29.750Z,15.29
2022-10-21T11:22:33.405Z,15.24
2022-10-21T11:23:30.233Z,15.09
2022-10-21T11:24:30.458Z,15.06
2022-10-21T11:25:32.650Z,15.14
2022-10-21T11:26:30.964Z,15.29
2022-10-21T11:27:32.185Z,15.49
2022-10-21T11:28:33.428Z,15.54
2022-10-21T11:29:31.707Z,15.51
2022-10-21T11:30:31.939Z,15.22
2022-10-21T11:31:43.744Z,15.14
2022-10-21T11:32:34.598Z,15.04
2022-10-21T11:33:32.907Z,15.06
2022-10-21T11:34:35.065Z,14.94
2022-10-21T11:35:33.369Z,14.97
2022-10-21T11:36:35.552Z,15.07
2022-10-21T11:37:33.880Z,15.17
2022-10-21T11:38:34.104Z,15.11
2022-10-21T11:39:34.335Z,15.10
2022-10-21T11:40:34.581Z,14.99
2022-10-21T11:41:36.757Z,14.88
2022-10-21T11:42:37.432Z,14.92
2022-10-21T11:43:35.382Z,15.03
2022-10-21T11:44:35.589Z,15.02
2022-10-21T11:45:37.748Z,15.22
2022-10-21T11:46:36.056Z,15.36
2022-10-21T11:47:39.789Z,15.49
2022-10-21T11:48:36.604Z,15.55
2022-10-21T11:49:37.412Z,15.37
2022-10-21T11:50:37.233Z,15.57
2022-10-21T11:51:37.455Z,15.49
2022-10-21T11:52:39.821Z,15.44
2022-10-21T11:53:38.003Z,15.55
2022-10-21T11:54:45.501Z,15.75
2022-10-21T11:55:40.325Z,15.73
2022-10-21T11:56:38.770Z,15.77
2022-10-21T11:57:42.424Z,15.76
2022-10-21T11:58:39.239Z,15.75
2022-10-21T11:59:39.493Z,15.44
2022-10-21T12:00:39.710Z,15.28
2022-10-21T12:01:39.957Z,15.43
2022-10-21T12:02:43.214Z,15.52
2022-10-21T12:03:40.538Z,15.79
2022-10-21T12:04:40.765Z,15.95
2022-10-21T12:05:41.065Z,15.98
2022-10-21T12:06:41.290Z,15.98
2022-10-21T12:07:44.954Z,15.84
2022-10-21T12:08:45.253Z,15.75
2022-10-21T12:09:42.020Z,15.55
2022-10-21T12:10:44.202Z,15.35
2022-10-21T12:11:42.512Z,15.43
2022-10-21T12:12:45.654Z,15.59
2022-10-21T12:13:45.844Z,15.52
2022-10-21T12:14:43.282Z,15.43
2022-10-21T12:15:45.652Z,15.44
2022-10-21T12:16:44.713Z,15.49
2022-10-21T12:17:46.185Z,15.55
2022-10-21T12:18:45.290Z,15.55
2022-10-21T12:19:44.718Z,15.64
2022-10-21T12:20:45.401Z,15.57
2022-10-21T12:21:48.107Z,15.57
2022-10-21T12:22:45.581Z,15.62
2022-10-21T12:23:47.634Z,15.68
2022-10-21T12:24:45.957Z,15.73
2022-10-21T12:25:48.142Z,15.59
2022-10-21T12:26:47.927Z,15.51
2022-10-21T12:27:46.743Z,15.68
2022-10-21T12:28:48.936Z,15.67
2022-10-21T12:29:47.254Z,15.77
2022-10-21T12:30:47.492Z,15.75
2022-10-21T12:31:48.714Z,15.75
2022-10-21T12:32:48.014Z,15.67
2022-10-21T12:33:50.199Z,15.80
2022-10-21T12:34:48.507Z,15.94
2022-10-21T12:35:48.757Z,16.05
2022-10-21T12:36:49.956Z,15.92
2022-10-21T12:37:49.255Z,15.82
2022-10-21T12:38:51.441Z,15.94
2022-10-21T12:39:49.755Z,16.09
2022-10-21T12:40:49.997Z,16.09
2022-10-21T12:41:52.240Z,16.16
2022-10-21T12:42:50.558Z,15.95
2022-10-21T12:43:50.800Z,15.94
2022-10-21T12:44:53.045Z,16.01
2022-10-21T12:45:51.326Z,16.16
2022-10-21T12:46:54.498Z,16.20
2022-10-21T12:47:51.811Z,16.24
2022-10-21T12:48:52.051Z,16.13
2022-10-21T12:49:52.958Z,16.16
2022-10-21T12:50:52.648Z,16.29
2022-10-21T12:51:53.951Z,16.46
2022-10-21T12:52:53.186Z,16.56
2022-10-21T12:53:53.409Z,16.53
2022-10-21T12:54:56.542Z,16.49
2022-10-21T12:55:55.951Z,16.38
2022-10-21T12:56:55.207Z,16.33
2022-10-21T12:57:55.365Z,16.50
2022-10-21T12:58:55.782Z,16.31